Time;durP1;ratioP1;P1;durP2;ratioP2;P2;SDS_P1;SDS_P2;PMS_P1;PMS_P2;Temp;Humidity;BMP_temperature;BMP_pressure;BME280_temperature;BME280_humidity;BME280_pressure;Samples;Min_cycle;Max_cycle;Signal;HPM_P1;HPM_P2
2023/04/19 00:02:08;;;;;;;7.90;4.13;;;;;;;;;;7391177;19;20016;-72
2023/04/19 00:04:34;;;;;;;7.22;4.43;;;;;;;;;;7390605;19;20378;-72
2023/04/19 00:06:59;;;;;;;7.75;4.93;;;;;;;;;;7389191;19;20006;-73
2023/04/19 00:09:24;;;;;;;7.60;4.78;;;;;;;;;;7389226;19;20065;-73
2023/04/19 00:11:51;;;;;;;8.27;4.63;;;;;;;;;;7388959;19;20021;-72
2023/04/19 00:14:17;;;;;;;8.30;4.00;;;;;;;;;;7387231;19;20010;-72
2023/04/19 00:16:42;;;;;;;7.72;3.95;;;;;;;;;;7387291;19;19994;-72
2023/04/19 00:19:07;;;;;;;8.60;3.78;;;;;;;;;;7386301;19;19995;-72
2023/04/19 00:21:32;;;;;;;6.90;3.80;;;;;;;;;;7386857;19;20001;-72
2023/04/19 00:23:58;;;;;;;7.47;4.47;;;;;;;;;;7384598;19;20011;-73
2023/04/19 00:26:23;;;;;;;8.95;4.80;;;;;;;;;;7385033;19;19999;-72
2023/04/19 00:28:48;;;;;;;7.60;3.80;;;;;;;;;;7387191;19;19998;-72
2023/04/19 00:31:14;;;;;;;7.18;3.95;;;;;;;;;;7386192;19;20025;-73
2023/04/19 00:33:39;;;;;;;7.90;3.92;;;;;;;;;;7384655;19;19999;-72
2023/04/19 00:36:04;;;;;;;9.35;4.47;;;;;;;;;;7384316;19;20026;-71
2023/04/19 00:38:30;;;;;;;6.75;3.95;;;;;;;;;;7386590;19;20340;-72
2023/04/19 00:40:55;;;;;;;7.22;4.28;;;;;;;;;;7385591;19;20438;-72
2023/04/19 00:43:20;;;;;;;7.60;4.10;;;;;;;;;;7385981;19;20002;-72
2023/04/19 00:45:47;;;;;;;7.93;4.25;;;;;;;;;;7390023;19;19999;-72
2023/04/19 00:48:13;;;;;;;7.55;4.50;;;;;;;;;;7385068;19;20058;-72
2023/04/19 00:50:40;;;;;;;7.90;4.35;;;;;;;;;;7385885;19;20104;-71
2023/04/19 00:53:06;;;;;;;7.38;4.40;;;;;;;;;;7391321;19;20349;-72
2023/04/19 00:55:32;;;;;;;8.38;4.38;;;;;;;;;;7393403;19;20002;-71
2023/04/19 00:57:58;;;;;;;8.02;4.70;;;;;;;;;;7390596;19;20027;-72
2023/04/19 01:00:24;;;;;;;8.00;4.57;;;;;;;;;;7392572;19;20003;-72
2023/04/19 01:02:49;;;;;;;8.05;4.30;;;;;;;;;;7393363;19;19994;-71
2023/04/19 01:05:15;;;;;;;6.68;4.10;;;;;;;;;;7394954;19;19991;-72
2023/04/19 01:07:41;;;;;;;7.22;4.07;;;;;;;;;;7397409;19;19999;-72
2023/04/19 01:10:07;;;;;;;9.20;4.65;;;;;;;;;;7401487;19;19994;-73
2023/04/19 01:12:32;;;;;;;10.23;5.13;;;;;;;;;;7394061;19;20003;-72
2023/04/19 01:14:58;;;;;;;9.95;5.45;;;;;;;;;;7393095;19;20373;-72
2023/04/19 01:17:25;;;;;;;10.68;5.28;;;;;;;;;;7390338;19;20030;-72
2023/04/19 01:20:01;;;;;;;9.07;4.95;;;;;;;;;;7392241;19;20019;-72
2023/04/19 01:22:27;;;;;;;7.43;4.50;;;;;;;;;;7392203;19;19999;-71
2023/04/19 01:24:52;;;;;;;7.20;3.90;;;;;;;;;;7391731;19;19995;-73
2023/04/19 01:27:18;;;;;;;10.23;4.82;;;;;;;;;;7387802;19;19998;-72
2023/04/19 01:29:44;;;;;;;9.77;5.07;;;;;;;;;;7391543;19;20019;-72
2023/04/19 01:32:11;;;;;;;7.75;4.32;;;;;;;;;;7392741;19;20482;-72
2023/04/19 01:34:37;;;;;;;9.70;5.15;;;;;;;;;;7394208;19;19995;-72
2023/04/19 01:37:02;;;;;;;8.82;5.00;;;;;;;;;;7390472;19;20022;-72
2023/04/19 01:39:28;;;;;;;8.85;5.72;;;;;;;;;;7392197;19;20297;-72
2023/04/19 01:41:53;;;;;;;11.63;5.70;;;;;;;;;;7390775;19;20009;-71
2023/04/19 01:44:18;;;;;;;11.27;5.10;;;;;;;;;;7395828;19;20087;-72
2023/04/19 01:46:44;;;;;;;9.30;5.18;;;;;;;;;;7398177;19;20006;-71
2023/04/19 01:49:09;;;;;;;10.13;5.50;;;;;;;;;;7396200;19;19990;-71
2023/04/19 01:51:36;;;;;;;9.38;5.47;;;;;;;;;;7395822;19;19995;-72
2023/04/19 01:54:01;;;;;;;9.93;5.80;;;;;;;;;;7394730;19;20023;-72
2023/04/19 01:56:27;;;;;;;9.65;5.65;;;;;;;;;;7389580;19;20007;-71
2023/04/19 01:58:52;;;;;;;10.75;6.18;;;;;;;;;;7395633;19;20484;-72
2023/04/19 02:01:17;;;;;;;9.73;5.90;;;;;;;;;;7393392;19;20107;-72
2023/04/19 02:03:42;;;;;;;8.48;5.05;;;;;;;;;;7390255;19;20035;-72
2023/04/19 02:06:11;;;;;;;11.52;5.95;;;;;;;;;;7391310;19;20009;-72
2023/04/19 02:08:38;;;;;;;10.35;6.20;;;;;;;;;;7388804;19;20027;-73
2023/04/19 02:11:13;;;;;;;9.15;5.55;;;;;;;;;;7390047;19;20003;-72
2023/04/19 02:13:38;;;;;;;10.45;6.25;;;;;;;;;;7390823;19;20014;-72
2023/04/19 02:16:04;;;;;;;10.52;6.05;;;;;;;;;;7389290;19;20006;-72
2023/04/19 02:18:30;;;;;;;11.18;6.53;;;;;;;;;;7390202;19;20007;-72
2023/04/19 02:20:56;;;;;;;11.75;6.82;;;;;;;;;;7389475;19;20030;-72
2023/04/19 02:23:22;;;;;;;11.88;6.43;;;;;;;;;;7389412;19;20337;-73
2023/04/19 02:25:47;;;;;;;12.88;6.90;;;;;;;;;;7389846;19;20007;-73
2023/04/19 02:28:12;;;;;;;12.38;5.95;;;;;;;;;;7386949;19;20023;-72
2023/04/19 02:30:38;;;;;;;11.85;6.63;;;;;;;;;;7389273;19;19998;-72
2023/04/19 02:33:03;;;;;;;10.77;6.38;;;;;;;;;;7389262;19;19999;-71
2023/04/19 02:35:28;;;;;;;13.00;7.53;;;;;;;;;;7389834;19;20066;-72
2023/04/19 02:37:53;;;;;;;12.63;6.72;;;;;;;;;;7388049;19;19999;-71
2023/04/19 02:40:21;;;;;;;14.68;7.55;;;;;;;;;;7391887;19;20538;-72
2023/04/19 02:42:47;;;;;;;13.02;7.57;;;;;;;;;;7407829;19;20457;-72
2023/04/19 02:45:12;;;;;;;12.35;7.25;;;;;;;;;;7409369;19;20006;-72
2023/04/19 02:47:37;;;;;;;15.20;7.82;;;;;;;;;;7399865;19;20006;-71
2023/04/19 02:50:03;;;;;;;12.52;6.80;;;;;;;;;;7389987;19;20361;-73
2023/04/19 02:52:28;;;;;;;12.30;6.93;;;;;;;;;;7389953;19;20020;-72
2023/04/19 02:54:54;;;;;;;10.30;5.93;;;;;;;;;;7389485;19;20014;-72
2023/04/19 02:57:19;;;;;;;12.45;6.85;;;;;;;;;;7386860;19;20014;-72
2023/04/19 02:59:44;;;;;;;13.75;7.57;;;;;;;;;;7388602;19;19999;-73
2023/04/19 03:02:09;;;;;;;17.73;8.20;;;;;;;;;;7390413;19;20010;-72
2023/04/19 03:04:35;;;;;;;14.02;8.30;;;;;;;;;;7388861;19;20021;-72
2023/04/19 03:07:00;;;;;;;12.70;6.28;;;;;;;;;;7391363;19;20013;-72
2023/04/19 03:09:26;;;;;;;13.32;6.97;;;;;;;;;;7389768;19;20011;-73
2023/04/19 03:11:52;;;;;;;12.23;7.32;;;;;;;;;;7394136;19;20066;-74
2023/04/19 03:14:17;;;;;;;12.90;7.28;;;;;;;;;;7396591;19;20007;-73
2023/04/19 03:16:42;;;;;;;10.40;6.03;;;;;;;;;;7388680;19;20011;-72
2023/04/19 03:19:08;;;;;;;11.40;6.20;;;;;;;;;;7389046;19;20003;-72
2023/04/19 03:21:33;;;;;;;11.85;7.57;;;;;;;;;;7388392;19;20608;-72
2023/04/19 03:23:58;;;;;;;14.07;7.90;;;;;;;;;;7392140;19;20002;-71
2023/04/19 03:26:24;;;;;;;13.07;8.10;;;;;;;;;;7393730;19;20588;-72
2023/04/19 03:28:49;;;;;;;11.35;6.75;;;;;;;;;;7386101;19;20541;-72
2023/04/19 03:31:15;;;;;;;13.00;7.88;;;;;;;;;;7388354;19;20023;-73
2023/04/19 03:33:40;;;;;;;13.77;7.22;;;;;;;;;;7389226;19;20003;-72
2023/04/19 03:36:06;;;;;;;13.70;8.05;;;;;;;;;;7387784;19;20433;-72
2023/04/19 03:38:31;;;;;;;14.68;8.20;;;;;;;;;;7391479;19;20337;-72
2023/04/19 03:40:57;;;;;;;15.02;8.68;;;;;;;;;;7387983;19;20006;-72
2023/04/19 03:43:23;;;;;;;11.05;6.45;;;;;;;;;;7387582;19;20499;-72
2023/04/19 03:45:49;;;;;;;14.70;7.95;;;;;;;;;;7388024;19;20009;-72
2023/04/19 03:48:14;;;;;;;14.35;7.97;;;;;;;;;;7385480;19;20002;-72
2023/04/19 03:50:39;;;;;;;14.50;7.70;;;;;;;;;;7389828;19;20024;-73
2023/04/19 03:53:05;;;;;;;15.45;8.13;;;;;;;;;;7387495;19;19999;-72
2023/04/19 03:55:30;;;;;;;14.23;7.22;;;;;;;;;;7387568;19;20003;-73
2023/04/19 03:57:55;;;;;;;13.48;7.43;;;;;;;;;;7385397;19;20376;-72
2023/04/19 04:00:21;;;;;;;13.20;7.45;;;;;;;;;;7385205;19;19995;-72
2023/04/19 04:02:46;;;;;;;14.82;8.27;;;;;;;;;;7388424;19;20018;-73
2023/04/19 04:05:12;;;;;;;12.55;6.95;;;;;;;;;;7389682;19;20003;-72
2023/04/19 04:07:37;;;;;;;15.43;7.72;;;;;;;;;;7387572;19;20365;-73
2023/04/19 04:10:03;;;;;;;13.07;7.85;;;;;;;;;;7388787;19;20413;-73
2023/04/19 04:12:29;;;;;;;12.32;6.97;;;;;;;;;;7386988;19;20037;-72
2023/04/19 04:14:54;;;;;;;14.48;6.07;;;;;;;;;;7387286;19;20007;-73
2023/04/19 04:17:20;;;;;;;14.38;7.53;;;;;;;;;;7388632;19;20075;-73
2023/04/19 04:19:45;;;;;;;14.77;6.75;;;;;;;;;;7391800;19;20006;-73
2023/04/19 04:22:10;;;;;;;12.90;7.43;;;;;;;;;;7389124;19;20016;-72
2023/04/19 04:24:40;;;;;;;13.52;7.65;;;;;;;;;;7389210;19;20013;-73
2023/04/19 04:27:08;;;;;;;13.23;7.05;;;;;;;;;;7390901;19;20066;-74
2023/04/19 04:29:37;;;;;;;15.23;8.00;;;;;;;;;;7397355;19;20874;-72
2023/04/19 04:32:09;;;;;;;11.48;7.05;;;;;;;;;;7394823;19;20002;-72
2023/04/19 04:34:36;;;;;;;13.00;7.03;;;;;;;;;;7398120;19;20041;-75
2023/04/19 04:37:02;;;;;;;14.80;7.53;;;;;;;;;;7395726;19;20352;-75
2023/04/19 04:39:28;;;;;;;13.52;7.90;;;;;;;;;;7398022;19;20059;-73
2023/04/19 04:41:56;;;;;;;12.88;7.45;;;;;;;;;;7401698;19;19995;-72
2023/04/19 04:44:21;;;;;;;14.82;7.78;;;;;;;;;;7396999;19;20498;-73
2023/04/19 04:46:47;;;;;;;12.73;8.18;;;;;;;;;;7397250;19;19994;-72
2023/04/19 04:49:12;;;;;;;15.02;8.98;;;;;;;;;;7397713;19;20424;-73
2023/04/19 04:51:37;;;;;;;14.40;8.77;;;;;;;;;;7397139;19;20079;-71
2023/04/19 04:54:04;;;;;;;13.40;7.82;;;;;;;;;;7396542;19;20072;-75
2023/04/19 04:56:29;;;;;;;14.30;8.68;;;;;;;;;;7393493;19;20094;-75
2023/04/19 04:58:55;;;;;;;19.00;9.68;;;;;;;;;;7399496;19;20433;-74
2023/04/19 05:01:22;;;;;;;15.52;9.18;;;;;;;;;;7413262;19;19990;-74
2023/04/19 05:03:48;;;;;;;13.38;8.10;;;;;;;;;;7413087;19;20589;-75
2023/04/19 05:06:13;;;;;;;15.75;8.88;;;;;;;;;;7406500;19;19991;-75
2023/04/19 05:08:38;;;;;;;18.30;9.40;;;;;;;;;;7404371;19;20492;-76
2023/04/19 05:11:04;;;;;;;13.85;7.85;;;;;;;;;;7407861;19;19995;-74
2023/04/19 05:13:29;;;;;;;14.93;9.45;;;;;;;;;;7404428;19;20006;-74
2023/04/19 05:15:55;;;;;;;13.20;8.18;;;;;;;;;;7405638;19;20172;-74
2023/04/19 05:18:20;;;;;;;16.42;8.40;;;;;;;;;;7406402;19;20015;-74
2023/04/19 05:20:45;;;;;;;16.55;9.93;;;;;;;;;;7395783;19;19991;-74
2023/04/19 05:23:11;;;;;;;18.40;9.38;;;;;;;;;;7395408;19;19999;-75
2023/04/19 05:25:36;;;;;;;14.38;8.40;;;;;;;;;;7396189;19;20024;-74
2023/04/19 05:28:02;;;;;;;13.07;8.60;;;;;;;;;;7388126;19;20014;-74
2023/04/19 05:30:27;;;;;;;15.93;9.25;;;;;;;;;;7387869;19;20524;-74
2023/04/19 05:32:53;;;;;;;17.20;8.93;;;;;;;;;;7387586;19;20422;-75
2023/04/19 05:35:19;;;;;;;16.27;9.63;;;;;;;;;;7390693;19;20008;-75
2023/04/19 05:37:44;;;;;;;17.65;10.15;;;;;;;;;;7392407;19;20002;-74
2023/04/19 05:40:10;;;;;;;19.55;9.18;;;;;;;;;;7400327;19;20096;-75
2023/04/19 05:42:37;;;;;;;17.90;9.80;;;;;;;;;;7395823;19;19991;-74
2023/04/19 05:45:02;;;;;;;16.23;9.52;;;;;;;;;;7395616;19;20003;-74
2023/04/19 05:47:28;;;;;;;17.02;8.40;;;;;;;;;;7389942;19;20625;-74
2023/04/19 05:49:53;;;;;;;14.05;8.25;;;;;;;;;;7392401;19;20058;-74
2023/04/19 05:52:18;;;;;;;16.20;9.50;;;;;;;;;;7391442;19;19994;-75
2023/04/19 05:54:44;;;;;;;14.32;7.88;;;;;;;;;;7392265;19;20522;-74
2023/04/19 05:57:09;;;;;;;14.18;8.88;;;;;;;;;;7389924;19;19991;-75
2023/04/19 05:59:34;;;;;;;19.27;10.00;;;;;;;;;;7391982;19;20009;-76
2023/04/19 06:02:00;;;;;;;15.07;8.63;;;;;;;;;;7391225;19;19995;-76
2023/04/19 06:04:26;;;;;;;16.05;9.70;;;;;;;;;;7395275;19;19998;-75
2023/04/19 06:06:51;;;;;;;17.35;9.70;;;;;;;;;;7393201;19;19999;-75
2023/04/19 06:09:19;;;;;;;15.73;9.40;;;;;;;;;;7395598;19;20593;-76
2023/04/19 06:11:45;;;;;;;15.93;8.93;;;;;;;;;;7393934;19;20092;-75
2023/04/19 06:14:12;;;;;;;15.82;7.85;;;;;;;;;;7395237;19;20030;-75
2023/04/19 06:16:38;;;;;;;17.52;8.45;;;;;;;;;;7390611;19;20460;-77
2023/04/19 06:19:04;;;;;;;16.15;7.93;;;;;;;;;;7395375;19;19995;-76
2023/04/19 06:21:30;;;;;;;22.17;8.77;;;;;;;;;;7397861;19;20471;-77
2023/04/19 06:23:55;;;;;;;12.90;7.85;;;;;;;;;;7395864;19;20007;-75
2023/04/19 06:26:21;;;;;;;12.88;8.60;;;;;;;;;;7390520;19;20009;-75
2023/04/19 06:28:46;;;;;;;16.60;8.20;;;;;;;;;;7389382;19;20440;-74
2023/04/19 06:31:11;;;;;;;15.13;7.70;;;;;;;;;;7393156;19;20058;-75
2023/04/19 06:33:37;;;;;;;14.23;7.63;;;;;;;;;;7396533;19;20015;-80
2023/04/19 06:36:03;;;;;;;12.75;7.20;;;;;;;;;;7394255;19;19995;-79
2023/04/19 06:38:28;;;;;;;12.23;7.10;;;;;;;;;;7395167;19;19999;-78
2023/04/19 06:40:54;;;;;;;13.73;7.50;;;;;;;;;;7396446;19;20047;-77
2023/04/19 06:43:20;;;;;;;11.65;7.25;;;;;;;;;;7392090;19;20508;-77
2023/04/19 06:45:45;;;;;;;16.27;7.35;;;;;;;;;;7395357;19;20023;-77
2023/04/19 06:48:11;;;;;;;12.18;6.05;;;;;;;;;;7391824;19;20116;-76
2023/04/19 06:50:36;;;;;;;11.48;6.30;;;;;;;;;;7400760;19;19997;-76
2023/04/19 06:53:02;;;;;;;10.50;6.15;;;;;;;;;;7391694;19;20010;-77
2023/04/19 06:55:27;;;;;;;15.60;5.90;;;;;;;;;;7395575;19;20002;-76
2023/04/19 06:57:53;;;;;;;11.43;6.40;;;;;;;;;;7392471;19;19999;-75
2023/04/19 07:00:18;;;;;;;9.60;4.55;;;;;;;;;;7389553;19;20001;-75
2023/04/19 07:02:44;;;;;;;10.02;5.63;;;;;;;;;;7385213;19;19998;-77
2023/04/19 07:05:09;;;;;;;9.68;5.32;;;;;;;;;;7384823;19;20010;-76
2023/04/19 07:07:36;;;;;;;11.63;6.90;;;;;;;;;;7380786;19;20803;-76
2023/04/19 07:10:02;;;;;;;11.65;6.03;;;;;;;;;;7383867;19;20002;-76
2023/04/19 07:12:27;;;;;;;11.70;6.78;;;;;;;;;;7390476;19;20007;-76
2023/04/19 07:14:55;;;;;;;10.10;5.50;;;;;;;;;;7394293;19;20007;-77
2023/04/19 07:17:21;;;;;;;11.27;5.72;;;;;;;;;;7391541;19;20325;-76
2023/04/19 07:19:48;;;;;;;10.15;5.90;;;;;;;;;;7384356;19;20119;-75
2023/04/19 07:22:13;;;;;;;11.00;5.38;;;;;;;;;;7392173;19;20289;-75
2023/04/19 07:24:40;;;;;;;14.88;5.70;;;;;;;;;;7390339;19;20464;-77
2023/04/19 07:27:06;;;;;;;9.38;5.30;;;;;;;;;;7388610;19;20952;-75
2023/04/19 07:29:33;;;;;;;12.25;5.60;;;;;;;;;;7393135;19;20003;-78
2023/04/19 07:32:00;;;;;;;11.27;4.70;;;;;;;;;;7396394;19;19999;-77
2023/04/19 07:34:26;;;;;;;7.03;4.25;;;;;;;;;;7394522;19;20390;-79
2023/04/19 07:36:51;;;;;;;9.10;4.25;;;;;;;;;;7394725;19;20006;-75
2023/04/19 07:39:17;;;;;;;5.90;3.70;;;;;;;;;;7392035;19;19995;-75
2023/04/19 07:41:43;;;;;;;8.57;4.85;;;;;;;;;;7393104;19;20420;-78
2023/04/19 07:44:08;;;;;;;6.57;3.38;;;;;;;;;;7392521;19;19998;-78
2023/04/19 07:46:33;;;;;;;5.75;3.58;;;;;;;;;;7389976;19;20267;-77
2023/04/19 07:48:59;;;;;;;10.63;4.97;;;;;;;;;;7395875;19;20003;-78
2023/04/19 07:51:25;;;;;;;8.18;3.75;;;;;;;;;;7397358;19;20456;-76
2023/04/19 07:53:50;;;;;;;8.20;4.88;;;;;;;;;;7397605;19;20388;-76
2023/04/19 07:56:15;;;;;;;6.55;4.00;;;;;;;;;;7390213;19;20009;-75
2023/04/19 07:58:41;;;;;;;7.63;3.75;;;;;;;;;;7389816;19;20416;-78
2023/04/19 08:01:06;;;;;;;7.85;4.13;;;;;;;;;;7392011;19;20011;-77
2023/04/19 08:03:35;;;;;;;7.82;3.78;;;;;;;;;;7392106;19;20003;-77
2023/04/19 08:06:03;;;;;;;7.97;4.10;;;;;;;;;;7386747;19;20094;-76
2023/04/19 08:08:29;;;;;;;7.82;4.25;;;;;;;;;;7389730;19;20386;-76
2023/04/19 08:10:55;;;;;;;8.10;4.13;;;;;;;;;;7386809;19;20007;-78
2023/04/19 08:13:20;;;;;;;7.65;3.85;;;;;;;;;;7390336;19;20003;-76
2023/04/19 08:15:46;;;;;;;7.22;4.03;;;;;;;;;;7387277;19;20086;-77
2023/04/19 08:18:14;;;;;;;8.82;3.97;;;;;;;;;;7387139;19;20010;-80
2023/04/19 08:20:43;;;;;;;10.10;3.10;;;;;;;;;;7389651;19;20002;-76
2023/04/19 08:23:08;;;;;;;6.30;3.33;;;;;;;;;;7386336;19;20030;-77
2023/04/19 08:25:34;;;;;;;6.25;3.30;;;;;;;;;;7391026;19;19998;-76
2023/04/19 08:28:00;;;;;;;7.22;4.10;;;;;;;;;;7386838;19;20014;-76
2023/04/19 08:30:25;;;;;;;7.45;3.15;;;;;;;;;;7384543;19;20010;-79
2023/04/19 08:32:51;;;;;;;6.95;3.80;;;;;;;;;;7389163;19;20319;-77
2023/04/19 08:35:16;;;;;;;8.98;3.75;;;;;;;;;;7384298;19;20530;-79
2023/04/19 08:37:42;;;;;;;5.50;3.33;;;;;;;;;;7387640;19;20018;-77
2023/04/19 08:40:07;;;;;;;7.93;4.13;;;;;;;;;;7388719;19;20495;-77
2023/04/19 08:42:33;;;;;;;5.82;3.53;;;;;;;;;;7402701;19;20031;-76
2023/04/19 08:45:04;;;;;;;6.57;3.25;;;;;;;;;;7397432;19;20437;-78
2023/04/19 08:47:36;;;;;;;7.53;3.85;;;;;;;;;;7386955;19;20027;-74
2023/04/19 08:50:07;;;;;;;5.30;2.75;;;;;;;;;;7387988;19;20452;-76
2023/04/19 08:52:34;;;;;;;7.70;3.30;;;;;;;;;;7391260;19;20002;-76
2023/04/19 08:55:03;;;;;;;8.02;3.47;;;;;;;;;;7390202;19;20010;-79
2023/04/19 08:57:30;;;;;;;6.15;3.58;;;;;;;;;;7386768;19;20002;-78
2023/04/19 08:59:56;;;;;;;5.55;2.50;;;;;;;;;;7389164;19;20550;-77
2023/04/19 09:02:22;;;;;;;4.60;2.97;;;;;;;;;;7385638;19;20122;-77
2023/04/19 09:04:48;;;;;;;4.32;2.70;;;;;;;;;;7387873;19;20082;-75
2023/04/19 09:07:26;;;;;;;6.22;3.40;;;;;;;;;;7384085;19;20062;-76
2023/04/19 09:10:13;;;;;;;7.25;3.50;;;;;;;;;;7389005;19;20010;-75
2023/04/19 09:12:39;;;;;;;3.50;2.25;;;;;;;;;;7388227;19;20006;-75
2023/04/19 09:15:09;;;;;;;7.50;3.17;;;;;;;;;;7391696;19;20099;-75
2023/04/19 09:17:35;;;;;;;7.15;2.90;;;;;;;;;;7388916;19;20008;-76
2023/04/19 09:20:03;;;;;;;6.25;3.67;;;;;;;;;;7392346;19;20078;-77
2023/04/19 09:22:28;;;;;;;5.78;2.72;;;;;;;;;;7392906;19;20014;-76
2023/04/19 09:24:53;;;;;;;5.57;3.33;;;;;;;;;;7392239;19;20040;-75
2023/04/19 09:27:33;;;;;;;4.68;2.72;;;;;;;;;;7389658;19;20025;-76
2023/04/19 09:30:00;;;;;;;6.78;3.60;;;;;;;;;;7393260;19;20036;-74
2023/04/19 09:32:27;;;;;;;5.35;2.95;;;;;;;;;;7391575;19;20009;-75
2023/04/19 09:34:57;;;;;;;7.30;3.53;;;;;;;;;;7393414;19;20003;-75
2023/04/19 09:37:23;;;;;;;4.93;2.70;;;;;;;;;;7392424;19;20013;-77
2023/04/19 09:39:49;;;;;;;6.75;3.25;;;;;;;;;;7396681;19;20531;-76
2023/04/19 09:42:17;;;;;;;9.00;3.25;;;;;;;;;;7390945;19;20010;-76
2023/04/19 09:44:54;;;;;;;7.82;2.80;;;;;;;;;;7389393;19;20033;-77
2023/04/19 09:47:24;;;;;;;8.27;3.25;;;;;;;;;;7390606;19;20452;-77
2023/04/19 09:50:07;;;;;;;6.15;3.00;;;;;;;;;;7388233;19;20036;-74
2023/04/19 09:52:33;;;;;;;5.07;2.92;;;;;;;;;;7393627;19;20006;-75
2023/04/19 09:55:05;;;;;;;5.65;3.38;;;;;;;;;;7392958;19;20010;-75
2023/04/19 09:57:32;;;;;;;5.78;3.08;;;;;;;;;;7391360;19;20010;-75
2023/04/19 09:59:59;;;;;;;4.57;2.67;;;;;;;;;;7393386;19;20038;-74
2023/04/19 10:02:30;;;;;;;5.43;2.80;;;;;;;;;;7393790;19;20022;-75
2023/04/19 10:04:57;;;;;;;7.20;2.63;;;;;;;;;;7392282;19;20070;-75
2023/04/19 10:07:23;;;;;;;8.70;3.63;;;;;;;;;;7389090;19;20013;-76
2023/04/19 10:09:50;;;;;;;4.60;2.72;;;;;;;;;;7402667;19;20010;-75
2023/04/19 10:12:15;;;;;;;7.30;3.22;;;;;;;;;;7395090;19;20007;-77
2023/04/19 10:14:42;;;;;;;5.63;3.42;;;;;;;;;;7391237;19;20305;-76
2023/04/19 10:17:07;;;;;;;7.70;3.28;;;;;;;;;;7389317;19;20019;-76
2023/04/19 10:19:36;;;;;;;8.05;3.35;;;;;;;;;;7390591;19;20411;-67
2023/04/19 10:22:04;;;;;;;6.60;3.78;;;;;;;;;;7387722;19;20013;-67
2023/04/19 10:24:30;;;;;;;5.20;3.22;;;;;;;;;;7390235;19;20423;-75
2023/04/19 10:27:11;;;;;;;6.25;3.17;;;;;;;;;;7385226;19;19999;-77
2023/04/19 10:30:04;;;;;;;8.43;3.67;;;;;;;;;;7387974;19;20005;-74
2023/04/19 10:32:40;;;;;;;6.30;2.92;;;;;;;;;;7387416;19;20436;-75
2023/04/19 10:35:16;;;;;;;8.48;3.05;;;;;;;;;;7385207;19;20483;-75
2023/04/19 10:38:01;;;;;;;6.55;3.47;;;;;;;;;;7386059;19;20002;-74
2023/04/19 10:40:56;;;;;;;7.47;3.50;;;;;;;;;;7387475;19;20014;-75
2023/04/19 10:43:23;;;;;;;5.88;3.50;;;;;;;;;;7393012;19;20032;-76
2023/04/19 10:45:48;;;;;;;8.27;3.72;;;;;;;;;;7407937;19;20067;-76
2023/04/19 10:48:29;;;;;;;6.00;3.53;;;;;;;;;;7414794;19;20010;-76
2023/04/19 10:51:09;;;;;;;9.32;3.33;;;;;;;;;;7417171;19;20058;-75
2023/04/19 10:53:51;;;;;;;6.25;3.65;;;;;;;;;;7402246;19;19999;-75
2023/04/19 10:56:32;;;;;;;7.07;4.00;;;;;;;;;;7389466;19;19998;-75
2023/04/19 10:59:01;;;;;;;6.60;3.17;;;;;;;;;;7388748;19;20006;-75
2023/04/19 11:01:55;;;;;;;5.07;3.03;;;;;;;;;;7389794;19;20367;-76
2023/04/19 11:04:21;;;;;;;5.40;2.92;;;;;;;;;;7386820;19;19999;-76
2023/04/19 11:06:52;;;;;;;6.78;4.05;;;;;;;;;;7389886;19;20011;-74
2023/04/19 11:09:35;;;;;;;6.47;3.22;;;;;;;;;;7386962;19;20006;-76
2023/04/19 11:12:02;;;;;;;6.68;3.40;;;;;;;;;;7388862;19;20332;-75
2023/04/19 11:14:33;;;;;;;6.00;2.90;;;;;;;;;;7388198;19;20369;-77
2023/04/19 11:17:01;;;;;;;8.27;3.50;;;;;;;;;;7387482;19;20014;-76
2023/04/19 11:19:26;;;;;;;6.45;2.78;;;;;;;;;;7386392;19;20411;-76
2023/04/19 11:21:57;;;;;;;6.50;3.30;;;;;;;;;;7388570;19;20014;-77
2023/04/19 11:24:22;;;;;;;6.38;3.50;;;;;;;;;;7388509;19;20021;-76
2023/04/19 11:26:48;;;;;;;7.65;3.67;;;;;;;;;;7386129;19;20356;-76
2023/04/19 11:29:13;;;;;;;6.57;3.58;;;;;;;;;;7388220;19;20002;-77
2023/04/19 11:31:39;;;;;;;6.28;3.60;;;;;;;;;;7386754;19;20017;-75
2023/04/19 11:34:04;;;;;;;12.18;4.15;;;;;;;;;;7383964;19;20376;-76
2023/04/19 11:36:31;;;;;;;6.75;3.35;;;;;;;;;;7384693;19;20010;-76
2023/04/19 11:38:57;;;;;;;8.20;3.45;;;;;;;;;;7387571;19;20027;-75
2023/04/19 11:41:22;;;;;;;10.32;3.80;;;;;;;;;;7385614;19;20007;-76
2023/04/19 11:43:47;;;;;;;7.00;3.58;;;;;;;;;;7387932;19;20002;-76
2023/04/19 11:46:13;;;;;;;5.82;2.78;;;;;;;;;;7382655;19;20474;-75
2023/04/19 11:48:50;;;;;;;7.78;3.45;;;;;;;;;;7385310;19;20013;-76
2023/04/19 11:51:15;;;;;;;8.15;3.45;;;;;;;;;;7383365;19;20007;-76
2023/04/19 11:53:40;;;;;;;6.47;3.45;;;;;;;;;;7386467;19;20013;-74
2023/04/19 11:56:08;;;;;;;9.95;3.40;;;;;;;;;;7383035;19;20031;-74
2023/04/19 11:58:40;;;;;;;6.93;3.20;;;;;;;;;;7387633;19;20035;-76
2023/04/19 12:01:07;;;;;;;6.35;2.92;;;;;;;;;;7386400;19;20007;-76
2023/04/19 12:03:34;;;;;;;5.53;2.85;;;;;;;;;;7387504;19;20013;-76
2023/04/19 12:06:07;;;;;;;5.50;2.92;;;;;;;;;;7386411;19;20010;-75
2023/04/19 12:08:38;;;;;;;6.30;3.22;;;;;;;;;;7388237;19;20013;-76
2023/04/19 12:11:05;;;;;;;10.05;3.80;;;;;;;;;;7384027;19;20394;-76
2023/04/19 12:13:31;;;;;;;6.28;2.65;;;;;;;;;;7389173;19;20387;-76
2023/04/19 12:15:57;;;;;;;8.60;2.97;;;;;;;;;;7396077;19;20003;-76
2023/04/19 12:18:23;;;;;;;15.65;3.03;;;;;;;;;;7400888;19;20023;-76
2023/04/19 12:20:50;;;;;;;6.80;3.28;;;;;;;;;;7395949;19;20003;-75
2023/04/19 12:23:16;;;;;;;5.93;3.03;;;;;;;;;;7394014;19;20021;-75
2023/04/19 12:25:43;;;;;;;4.80;2.30;;;;;;;;;;7391326;19;20028;-76
2023/04/19 12:28:08;;;;;;;5.30;2.42;;;;;;;;;;7391005;19;20010;-75
2023/04/19 12:30:35;;;;;;;7.78;2.65;;;;;;;;;;7393381;19;20032;-76
2023/04/19 12:33:01;;;;;;;6.13;2.00;;;;;;;;;;7394086;19;20010;-75
2023/04/19 12:35:27;;;;;;;5.53;2.50;;;;;;;;;;7399955;19;20278;-75
2023/04/19 12:37:57;;;;;;;4.75;2.50;;;;;;;;;;7392381;19;20003;-76
2023/04/19 12:40:24;;;;;;;5.00;2.38;;;;;;;;;;7395144;19;19999;-76
2023/04/19 12:42:49;;;;;;;8.07;2.15;;;;;;;;;;7394999;19;19999;-76
2023/04/19 12:45:15;;;;;;;6.10;2.50;;;;;;;;;;7393310;19;20003;-66
2023/04/19 12:47:42;;;;;;;5.85;2.33;;;;;;;;;;7389677;19;20062;-68
2023/04/19 12:50:08;;;;;;;3.65;1.90;;;;;;;;;;7395454;19;20052;-69
2023/04/19 12:52:34;;;;;;;3.35;1.80;;;;;;;;;;7393392;19;19994;-66
2023/04/19 12:54:59;;;;;;;5.97;2.30;;;;;;;;;;7394427;19;20023;-66
2023/04/19 12:57:24;;;;;;;4.30;2.35;;;;;;;;;;7391720;19;20009;-67
2023/04/19 12:59:50;;;;;;;4.90;2.20;;;;;;;;;;7392956;19;20002;-65
2023/04/19 13:02:15;;;;;;;6.00;2.22;;;;;;;;;;7398943;19;20417;-65
2023/04/19 13:04:40;;;;;;;5.28;2.10;;;;;;;;;;7395383;19;20357;-66
2023/04/19 13:07:06;;;;;;;2.72;1.60;;;;;;;;;;7393956;19;20002;-72
2023/04/19 13:09:31;;;;;;;3.28;1.70;;;;;;;;;;7397565;19;19994;-63
2023/04/19 13:11:57;;;;;;;3.75;1.60;;;;;;;;;;7396672;19;20007;-65
2023/04/19 13:14:24;;;;;;;7.85;1.90;;;;;;;;;;7396304;19;20547;-66
2023/04/19 13:16:49;;;;;;;4.10;1.63;;;;;;;;;;7386970;19;20010;-66
2023/04/19 13:19:14;;;;;;;3.42;1.83;;;;;;;;;;7391922;19;20006;-64
2023/04/19 13:21:40;;;;;;;3.38;1.70;;;;;;;;;;7389434;19;20356;-66
2023/04/19 13:24:06;;;;;;;2.90;1.65;;;;;;;;;;7384675;19;20002;-66
2023/04/19 13:26:33;;;;;;;2.60;1.50;;;;;;;;;;7385164;19;20000;-65
2023/04/19 13:28:58;;;;;;;2.65;1.35;;;;;;;;;;7385605;19;19999;-66
2023/04/19 13:31:25;;;;;;;3.75;1.80;;;;;;;;;;7386974;19;20006;-75
2023/04/19 13:33:50;;;;;;;5.28;1.98;;;;;;;;;;7383763;19;20118;-74
2023/04/19 13:36:16;;;;;;;2.80;1.60;;;;;;;;;;7390806;19;19999;-73
2023/04/19 13:38:41;;;;;;;3.72;1.70;;;;;;;;;;7390006;19;20002;-73
2023/04/19 13:41:06;;;;;;;1.55;1.30;;;;;;;;;;7390789;19;19994;-75
2023/04/19 13:43:32;;;;;;;2.53;1.50;;;;;;;;;;7389795;19;20006;-73
2023/04/19 13:45:57;;;;;;;2.72;1.50;;;;;;;;;;7392871;19;20050;-74
2023/04/19 13:48:23;;;;;;;2.53;1.50;;;;;;;;;;7388400;19;20011;-74
2023/04/19 13:50:50;;;;;;;7.43;1.70;;;;;;;;;;7391667;19;20019;-75
2023/04/19 13:53:15;;;;;;;2.10;1.40;;;;;;;;;;7390617;19;20516;-74
2023/04/19 13:55:40;;;;;;;3.70;1.60;;;;;;;;;;7390427;19;19998;-74
2023/04/19 13:58:06;;;;;;;2.33;1.42;;;;;;;;;;7386256;19;20551;-75
2023/04/19 14:00:32;;;;;;;1.67;1.50;;;;;;;;;;7387627;19;20003;-73
2023/04/19 14:02:58;;;;;;;4.85;1.83;;;;;;;;;;7388336;19;20003;-73
2023/04/19 14:05:23;;;;;;;4.28;1.42;;;;;;;;;;7389661;19;20381;-73
2023/04/19 14:07:48;;;;;;;3.80;1.83;;;;;;;;;;7385607;19;20432;-74
2023/04/19 14:10:14;;;;;;;7.10;1.60;;;;;;;;;;7388505;19;20089;-73
2023/04/19 14:12:40;;;;;;;1.20;1.05;;;;;;;;;;7392000;19;20006;-81
2023/04/19 14:15:05;;;;;;;2.95;1.30;;;;;;;;;;7393416;19;20023;-67
2023/04/19 14:17:31;;;;;;;1.73;1.25;;;;;;;;;;7390389;19;20034;-74
2023/04/19 14:19:56;;;;;;;2.33;1.52;;;;;;;;;;7395471;19;19990;-73
2023/04/19 14:22:22;;;;;;;3.03;1.60;;;;;;;;;;7393594;19;20014;-74
2023/04/19 14:24:47;;;;;;;2.72;1.52;;;;;;;;;;7393721;19;20587;-74
2023/04/19 14:27:12;;;;;;;6.28;2.00;;;;;;;;;;7392189;19;20050;-76
2023/04/19 14:29:38;;;;;;;2.38;1.40;;;;;;;;;;7394154;19;20342;-75
2023/04/19 14:32:04;;;;;;;2.58;1.50;;;;;;;;;;7394534;19;20081;-75
2023/04/19 14:34:29;;;;;;;7.22;1.83;;;;;;;;;;7394938;19;19999;-65
2023/04/19 14:36:55;;;;;;;8.85;1.70;;;;;;;;;;7393757;19;20011;-65